sensor_id;sensor_type;location;lat;lon;timestamp;P1;durP1;ratioP1;P2;durP2;ratioP2
30472;SDS011;17263;48.160;11.452;2023-11-18T00:01:24;8.20;;;7.40;;
30472;SDS011;17263;48.160;11.452;2023-11-18T00:03:50;8.87;;;7.97;;
30472;SDS011;17263;48.160;11.452;2023-11-18T00:06:16;8.83;;;8.03;;
30472;SDS011;17263;48.160;11.452;2023-11-18T00:08:42;7.83;;;7.13;;
30472;SDS011;17263;48.160;11.452;2023-11-18T00:11:08;7.67;;;6.97;;
30472;SDS011;17263;48.160;11.452;2023-11-18T00:13:36;8.53;;;7.60;;
30472;SDS011;17263;48.160;11.452;2023-11-18T00:16:08;8.20;;;7.40;;
30472;SDS011;17263;48.160;11.452;2023-11-18T00:18:38;8.85;;;8.05;;
30472;SDS011;17263;48.160;11.452;2023-11-18T00:21:05;9.07;;;7.77;;
30472;SDS011;17263;48.160;11.452;2023-11-18T00:23:32;7.77;;;7.07;;
30472;SDS011;17263;48.160;11.452;2023-11-18T00:25:58;7.70;;;7.00;;
30472;SDS011;17263;48.160;11.452;2023-11-18T00:28:24;7.00;;;6.40;;
30472;SDS011;17263;48.160;11.452;2023-11-18T00:30:50;6.50;;;5.97;;
30472;SDS011;17263;48.160;11.452;2023-11-18T00:33:17;8.10;;;6.03;;
30472;SDS011;17263;48.160;11.452;2023-11-18T00:35:43;6.13;;;5.53;;
30472;SDS011;17263;48.160;11.452;2023-11-18T00:38:11;6.10;;;5.60;;
30472;SDS011;17263;48.160;11.452;2023-11-18T00:40:37;5.77;;;5.27;;
30472;SDS011;17263;48.160;11.452;2023-11-18T00:43:03;5.37;;;4.87;;
30472;SDS011;17263;48.160;11.452;2023-11-18T00:45:30;4.57;;;4.17;;
30472;SDS011;17263;48.160;11.452;2023-11-18T00:47:56;4.97;;;4.57;;
30472;SDS011;17263;48.160;11.452;2023-11-18T00:50:22;4.50;;;4.10;;
30472;SDS011;17263;48.160;11.452;2023-11-18T00:52:48;4.47;;;4.07;;
30472;SDS011;17263;48.160;11.452;2023-11-18T00:55:15;4.70;;;3.70;;
30472;SDS011;17263;48.160;11.452;2023-11-18T00:57:44;3.97;;;3.63;;
30472;SDS011;17263;48.160;11.452;2023-11-18T01:00:14;4.07;;;3.73;;
30472;SDS011;17263;48.160;11.452;2023-11-18T01:02:58;3.77;;;3.47;;
30472;SDS011;17263;48.160;11.452;2023-11-18T01:05:25;3.90;;;3.50;;
30472;SDS011;17263;48.160;11.452;2023-11-18T01:07:51;3.70;;;3.40;;
30472;SDS011;17263;48.160;11.452;2023-11-18T01:10:17;4.00;;;3.70;;
30472;SDS011;17263;48.160;11.452;2023-11-18T01:12:44;3.57;;;3.27;;
30472;SDS011;17263;48.160;11.452;2023-11-18T01:15:10;3.50;;;2.97;;
30472;SDS011;17263;48.160;11.452;2023-11-18T01:17:38;3.47;;;3.17;;
30472;SDS011;17263;48.160;11.452;2023-11-18T01:20:04;2.97;;;2.67;;
30472;SDS011;17263;48.160;11.452;2023-11-18T01:22:36;3.50;;;3.20;;
30472;SDS011;17263;48.160;11.452;2023-11-18T01:25:06;3.60;;;3.30;;
30472;SDS011;17263;48.160;11.452;2023-11-18T01:27:34;3.47;;;3.17;;
30472;SDS011;17263;48.160;11.452;2023-11-18T01:30:00;3.37;;;3.07;;
30472;SDS011;17263;48.160;11.452;2023-11-18T01:32:26;3.17;;;2.87;;
30472;SDS011;17263;48.160;11.452;2023-11-18T01:34:55;3.27;;;2.90;;
30472;SDS011;17263;48.160;11.452;2023-11-18T01:37:21;3.30;;;3.10;;
30472;SDS011;17263;48.160;11.452;2023-11-18T01:39:48;3.07;;;2.80;;
30472;SDS011;17263;48.160;11.452;2023-11-18T01:42:14;3.30;;;3.00;;
30472;SDS011;17263;48.160;11.452;2023-11-18T01:44:40;3.40;;;3.10;;
30472;SDS011;17263;48.160;11.452;2023-11-18T01:47:06;3.00;;;2.73;;
30472;SDS011;17263;48.160;11.452;2023-11-18T01:49:36;3.73;;;3.13;;
30472;SDS011;17263;48.160;11.452;2023-11-18T01:52:05;3.17;;;2.87;;
30472;SDS011;17263;48.160;11.452;2023-11-18T01:54:38;3.47;;;3.17;;
30472;SDS011;17263;48.160;11.452;2023-11-18T01:57:05;2.93;;;2.50;;
30472;SDS011;17263;48.160;11.452;2023-11-18T01:59:34;3.40;;;2.80;;
30472;SDS011;17263;48.160;11.452;2023-11-18T02:02:00;2.80;;;2.60;;
30472;SDS011;17263;48.160;11.452;2023-11-18T02:04:27;2.97;;;2.67;;
30472;SDS011;17263;48.160;11.452;2023-11-18T02:06:53;3.20;;;2.90;;
30472;SDS011;17263;48.160;11.452;2023-11-18T02:09:20;2.93;;;2.73;;
30472;SDS011;17263;48.160;11.452;2023-11-18T02:15:02;3.07;;;2.83;;
30472;SDS011;17263;48.160;11.452;2023-11-18T02:17:37;3.40;;;3.10;;
30472;SDS011;17263;48.160;11.452;2023-11-18T02:20:04;3.37;;;3.10;;
30472;SDS011;17263;48.160;11.452;2023-11-18T02:22:41;3.20;;;2.90;;
30472;SDS011;17263;48.160;11.452;2023-11-18T02:25:11;3.90;;;3.13;;
30472;SDS011;17263;48.160;11.452;2023-11-18T02:27:41;3.57;;;3.27;;
30472;SDS011;17263;48.160;11.452;2023-11-18T02:30:08;3.57;;;3.07;;
30472;SDS011;17263;48.160;11.452;2023-11-18T02:32:46;3.00;;;2.80;;
30472;SDS011;17263;48.160;11.452;2023-11-18T02:35:25;3.87;;;3.57;;
30472;SDS011;17263;48.160;11.452;2023-11-18T02:38:00;3.23;;;2.93;;
30472;SDS011;17263;48.160;11.452;2023-11-18T02:40:35;3.63;;;3.17;;
30472;SDS011;17263;48.160;11.452;2023-11-18T02:43:04;3.50;;;3.20;;
30472;SDS011;17263;48.160;11.452;2023-11-18T02:45:31;3.73;;;3.20;;
30472;SDS011;17263;48.160;11.452;2023-11-18T02:47:58;3.37;;;3.07;;
30472;SDS011;17263;48.160;11.452;2023-11-18T02:50:25;3.83;;;3.53;;
30472;SDS011;17263;48.160;11.452;2023-11-18T02:52:55;3.90;;;3.60;;
30472;SDS011;17263;48.160;11.452;2023-11-18T02:55:21;3.43;;;3.13;;
30472;SDS011;17263;48.160;11.452;2023-11-18T02:57:48;4.37;;;3.40;;
30472;SDS011;17263;48.160;11.452;2023-11-18T03:00:17;4.87;;;3.90;;
30472;SDS011;17263;48.160;11.452;2023-11-18T03:02:48;4.03;;;3.63;;
30472;SDS011;17263;48.160;11.452;2023-11-18T03:05:17;4.20;;;3.60;;
30472;SDS011;17263;48.160;11.452;2023-11-18T03:07:44;3.27;;;2.97;;
30472;SDS011;17263;48.160;11.452;2023-11-18T03:10:12;3.67;;;3.37;;
30472;SDS011;17263;48.160;11.452;2023-11-18T03:12:48;3.80;;;3.50;;
30472;SDS011;17263;48.160;11.452;2023-11-18T03:15:18;3.60;;;3.30;;
30472;SDS011;17263;48.160;11.452;2023-11-18T03:17:45;3.67;;;3.37;;
30472;SDS011;17263;48.160;11.452;2023-11-18T03:20:14;3.73;;;3.43;;
30472;SDS011;17263;48.160;11.452;2023-11-18T03:22:42;3.63;;;3.33;;
30472;SDS011;17263;48.160;11.452;2023-11-18T03:25:10;3.83;;;3.53;;
30472;SDS011;17263;48.160;11.452;2023-11-18T03:27:37;4.00;;;3.60;;
30472;SDS011;17263;48.160;11.452;2023-11-18T03:30:04;3.77;;;3.47;;
30472;SDS011;17263;48.160;11.452;2023-11-18T03:32:32;3.83;;;3.53;;
30472;SDS011;17263;48.160;11.452;2023-11-18T03:34:58;3.90;;;3.53;;
30472;SDS011;17263;48.160;11.452;2023-11-18T03:37:24;4.27;;;3.87;;
30472;SDS011;17263;48.160;11.452;2023-11-18T03:39:52;4.00;;;3.70;;
30472;SDS011;17263;48.160;11.452;2023-11-18T03:42:18;4.80;;;4.03;;
30472;SDS011;17263;48.160;11.452;2023-11-18T03:44:44;4.30;;;3.90;;
30472;SDS011;17263;48.160;11.452;2023-11-18T03:47:13;7.10;;;4.27;;
30472;SDS011;17263;48.160;11.452;2023-11-18T03:49:40;4.67;;;4.27;;
30472;SDS011;17263;48.160;11.452;2023-11-18T03:52:06;4.47;;;4.07;;
30472;SDS011;17263;48.160;11.452;2023-11-18T03:54:32;5.33;;;4.83;;
30472;SDS011;17263;48.160;11.452;2023-11-18T03:56:58;4.53;;;4.13;;
30472;SDS011;17263;48.160;11.452;2023-11-18T03:59:25;5.40;;;4.80;;
30472;SDS011;17263;48.160;11.452;2023-11-18T04:01:51;5.13;;;4.73;;
30472;SDS011;17263;48.160;11.452;2023-11-18T04:04:19;5.20;;;4.80;;
30472;SDS011;17263;48.160;11.452;2023-11-18T04:06:45;4.67;;;4.27;;
30472;SDS011;17263;48.160;11.452;2023-11-18T04:09:12;5.07;;;4.57;;
30472;SDS011;17263;48.160;11.452;2023-11-18T04:11:38;5.57;;;5.07;;
30472;SDS011;17263;48.160;11.452;2023-11-18T04:14:04;5.10;;;4.70;;
30472;SDS011;17263;48.160;11.452;2023-11-18T04:16:30;5.23;;;4.73;;
30472;SDS011;17263;48.160;11.452;2023-11-18T04:18:56;4.80;;;4.37;;
30472;SDS011;17263;48.160;11.452;2023-11-18T04:21:23;5.67;;;4.70;;
30472;SDS011;17263;48.160;11.452;2023-11-18T04:23:49;4.87;;;4.40;;
30472;SDS011;17263;48.160;11.452;2023-11-18T04:26:15;4.97;;;4.30;;
30472;SDS011;17263;48.160;11.452;2023-11-18T04:28:41;5.50;;;4.50;;
30472;SDS011;17263;48.160;11.452;2023-11-18T04:31:07;5.33;;;4.50;;
30472;SDS011;17263;48.160;11.452;2023-11-18T04:33:33;5.40;;;4.90;;
30472;SDS011;17263;48.160;11.452;2023-11-18T04:35:59;5.17;;;4.67;;
30472;SDS011;17263;48.160;11.452;2023-11-18T04:38:25;5.47;;;4.97;;
30472;SDS011;17263;48.160;11.452;2023-11-18T04:40:52;5.37;;;4.87;;
30472;SDS011;17263;48.160;11.452;2023-11-18T04:43:19;5.07;;;4.63;;
30472;SDS011;17263;48.160;11.452;2023-11-18T04:45:46;5.00;;;4.60;;
30472;SDS011;17263;48.160;11.452;2023-11-18T04:48:12;5.43;;;4.93;;
30472;SDS011;17263;48.160;11.452;2023-11-18T04:53:07;4.53;;;4.13;;
30472;SDS011;17263;48.160;11.452;2023-11-18T04:55:36;4.67;;;4.27;;
30472;SDS011;17263;48.160;11.452;2023-11-18T04:58:03;5.13;;;4.73;;
30472;SDS011;17263;48.160;11.452;2023-11-18T05:00:31;4.87;;;4.47;;
30472;SDS011;17263;48.160;11.452;2023-11-18T05:03:07;5.53;;;5.03;;
30472;SDS011;17263;48.160;11.452;2023-11-18T05:05:38;5.23;;;4.73;;
30472;SDS011;17263;48.160;11.452;2023-11-18T05:08:05;5.37;;;4.87;;
30472;SDS011;17263;48.160;11.452;2023-11-18T05:10:32;5.13;;;4.63;;
30472;SDS011;17263;48.160;11.452;2023-11-18T05:12:59;5.07;;;4.60;;
30472;SDS011;17263;48.160;11.452;2023-11-18T05:15:25;5.27;;;4.77;;
30472;SDS011;17263;48.160;11.452;2023-11-18T05:17:54;5.30;;;4.80;;
30472;SDS011;17263;48.160;11.452;2023-11-18T05:20:20;4.67;;;4.27;;
30472;SDS011;17263;48.160;11.452;2023-11-18T05:22:47;5.17;;;4.67;;
30472;SDS011;17263;48.160;11.452;2023-11-18T05:25:13;5.30;;;4.80;;
30472;SDS011;17263;48.160;11.452;2023-11-18T05:27:39;4.90;;;4.40;;
30472;SDS011;17263;48.160;11.452;2023-11-18T05:30:06;6.27;;;4.83;;
30472;SDS011;17263;48.160;11.452;2023-11-18T05:32:33;4.87;;;4.47;;
30472;SDS011;17263;48.160;11.452;2023-11-18T05:35:00;5.23;;;4.73;;
30472;SDS011;17263;48.160;11.452;2023-11-18T05:37:26;5.80;;;4.90;;
30472;SDS011;17263;48.160;11.452;2023-11-18T05:39:55;5.60;;;5.10;;
30472;SDS011;17263;48.160;11.452;2023-11-18T05:42:35;5.50;;;5.00;;
30472;SDS011;17263;48.160;11.452;2023-11-18T05:45:03;6.37;;;5.77;;
30472;SDS011;17263;48.160;11.452;2023-11-18T05:47:30;5.90;;;5.40;;
30472;SDS011;17263;48.160;11.452;2023-11-18T05:49:56;5.50;;;5.00;;
30472;SDS011;17263;48.160;11.452;2023-11-18T05:52:22;5.90;;;5.40;;
30472;SDS011;17263;48.160;11.452;2023-11-18T05:54:48;5.23;;;4.80;;
30472;SDS011;17263;48.160;11.452;2023-11-18T05:57:15;6.40;;;5.70;;
30472;SDS011;17263;48.160;11.452;2023-11-18T05:59:42;7.13;;;5.77;;
30472;SDS011;17263;48.160;11.452;2023-11-18T06:02:08;6.07;;;5.47;;
30472;SDS011;17263;48.160;11.452;2023-11-18T06:04:38;6.10;;;5.50;;
30472;SDS011;17263;48.160;11.452;2023-11-18T06:07:04;5.40;;;4.90;;
30472;SDS011;17263;48.160;11.452;2023-11-18T06:09:31;7.13;;;5.10;;
30472;SDS011;17263;48.160;11.452;2023-11-18T06:11:57;6.27;;;5.67;;
30472;SDS011;17263;48.160;11.452;2023-11-18T06:14:23;5.73;;;5.20;;
30472;SDS011;17263;48.160;11.452;2023-11-18T06:16:52;6.00;;;5.40;;
30472;SDS011;17263;48.160;11.452;2023-11-18T06:19:18;6.13;;;5.47;;
30472;SDS011;17263;48.160;11.452;2023-11-18T06:21:44;5.50;;;4.93;;
30472;SDS011;17263;48.160;11.452;2023-11-18T06:24:10;5.60;;;5.10;;
30472;SDS011;17263;48.160;11.452;2023-11-18T06:26:38;5.60;;;5.03;;
30472;SDS011;17263;48.160;11.452;2023-11-18T06:29:04;5.63;;;5.13;;
30472;SDS011;17263;48.160;11.452;2023-11-18T06:31:31;5.50;;;4.90;;
30472;SDS011;17263;48.160;11.452;2023-11-18T06:33:57;6.33;;;5.50;;
30472;SDS011;17263;48.160;11.452;2023-11-18T06:36:23;5.73;;;5.13;;
30472;SDS011;17263;48.160;11.452;2023-11-18T06:38:52;5.83;;;5.17;;
30472;SDS011;17263;48.160;11.452;2023-11-18T06:41:20;5.27;;;4.77;;
30472;SDS011;17263;48.160;11.452;2023-11-18T06:43:48;5.77;;;5.23;;
30472;SDS011;17263;48.160;11.452;2023-11-18T06:46:28;5.10;;;4.60;;
30472;SDS011;17263;48.160;11.452;2023-11-18T06:48:57;5.40;;;4.90;;
30472;SDS011;17263;48.160;11.452;2023-11-18T06:51:25;5.37;;;4.87;;
30472;SDS011;17263;48.160;11.452;2023-11-18T06:53:53;5.07;;;4.57;;
30472;SDS011;17263;48.160;11.452;2023-11-18T06:56:26;5.73;;;5.10;;
30472;SDS011;17263;48.160;11.452;2023-11-18T06:58:52;5.33;;;4.83;;
30472;SDS011;17263;48.160;11.452;2023-11-18T07:01:19;6.10;;;5.03;;
30472;SDS011;17263;48.160;11.452;2023-11-18T07:03:46;5.40;;;4.90;;
30472;SDS011;17263;48.160;11.452;2023-11-18T07:06:19;5.47;;;5.00;;
30472;SDS011;17263;48.160;11.452;2023-11-18T07:08:49;4.93;;;4.53;;
30472;SDS011;17263;48.160;11.452;2023-11-18T07:11:15;5.53;;;5.00;;
30472;SDS011;17263;48.160;11.452;2023-11-18T07:13:42;5.60;;;4.90;;
30472;SDS011;17263;48.160;11.452;2023-11-18T07:16:09;6.53;;;5.20;;
30472;SDS011;17263;48.160;11.452;2023-11-18T07:18:35;6.37;;;5.77;;
30472;SDS011;17263;48.160;11.452;2023-11-18T07:21:02;5.10;;;4.60;;
30472;SDS011;17263;48.160;11.452;2023-11-18T07:23:32;6.33;;;5.73;;
30472;SDS011;17263;48.160;11.452;2023-11-18T07:25:58;6.67;;;5.33;;
30472;SDS011;17263;48.160;11.452;2023-11-18T07:28:27;5.63;;;5.10;;
30472;SDS011;17263;48.160;11.452;2023-11-18T07:30:53;5.80;;;5.30;;
30472;SDS011;17263;48.160;11.452;2023-11-18T07:33:20;5.80;;;5.30;;
30472;SDS011;17263;48.160;11.452;2023-11-18T07:35:49;5.57;;;5.07;;
30472;SDS011;17263;48.160;11.452;2023-11-18T07:38:15;6.13;;;5.50;;
30472;SDS011;17263;48.160;11.452;2023-11-18T07:40:42;5.53;;;5.03;;
30472;SDS011;17263;48.160;11.452;2023-11-18T07:43:17;5.83;;;5.23;;
30472;SDS011;17263;48.160;11.452;2023-11-18T07:45:47;6.93;;;5.43;;
30472;SDS011;17263;48.160;11.452;2023-11-18T07:48:16;6.17;;;5.47;;
30472;SDS011;17263;48.160;11.452;2023-11-18T07:50:42;5.60;;;5.10;;
30472;SDS011;17263;48.160;11.452;2023-11-18T07:53:12;5.50;;;5.00;;
30472;SDS011;17263;48.160;11.452;2023-11-18T07:55:39;8.00;;;5.00;;
30472;SDS011;17263;48.160;11.452;2023-11-18T07:58:05;6.50;;;5.90;;
30472;SDS011;17263;48.160;11.452;2023-11-18T08:00:39;5.30;;;4.80;;
30472;SDS011;17263;48.160;11.452;2023-11-18T08:03:06;5.27;;;4.60;;
30472;SDS011;17263;48.160;11.452;2023-11-18T08:05:40;5.43;;;4.90;;
30472;SDS011;17263;48.160;11.452;2023-11-18T08:08:09;5.50;;;4.97;;
30472;SDS011;17263;48.160;11.452;2023-11-18T08:10:39;5.70;;;5.20;;
30472;SDS011;17263;48.160;11.452;2023-11-18T08:13:06;5.07;;;4.57;;
30472;SDS011;17263;48.160;11.452;2023-11-18T08:15:40;5.87;;;5.37;;
30472;SDS011;17263;48.160;11.452;2023-11-18T08:18:07;5.00;;;4.60;;
30472;SDS011;17263;48.160;11.452;2023-11-18T08:20:35;5.40;;;4.90;;
30472;SDS011;17263;48.160;11.452;2023-11-18T08:23:03;5.47;;;4.97;;
30472;SDS011;17263;48.160;11.452;2023-11-18T08:25:32;4.90;;;4.50;;
30472;SDS011;17263;48.160;11.452;2023-11-18T08:28:02;5.20;;;4.70;;
30472;SDS011;17263;48.160;11.452;2023-11-18T08:30:29;5.03;;;4.53;;
30472;SDS011;17263;48.160;11.452;2023-11-18T08:32:55;4.97;;;4.57;;
30472;SDS011;17263;48.160;11.452;2023-11-18T08:35:23;5.00;;;4.50;;
30472;SDS011;17263;48.160;11.452;2023-11-18T08:37:49;4.80;;;4.40;;
30472;SDS011;17263;48.160;11.452;2023-11-18T08:40:16;5.27;;;4.40;;
30472;SDS011;17263;48.160;11.452;2023-11-18T08:42:47;4.60;;;4.20;;
30472;SDS011;17263;48.160;11.452;2023-11-18T08:45:17;4.57;;;4.03;;
30472;SDS011;17263;48.160;11.452;2023-11-18T08:47:47;4.60;;;4.10;;
30472;SDS011;17263;48.160;11.452;2023-11-18T08:50:13;6.03;;;4.80;;
30472;SDS011;17263;48.160;11.452;2023-11-18T08:52:42;4.33;;;3.93;;
30472;SDS011;17263;48.160;11.452;2023-11-18T08:55:09;4.50;;;4.10;;
30472;SDS011;17263;48.160;11.452;2023-11-18T08:57:46;4.00;;;3.60;;
30472;SDS011;17263;48.160;11.452;2023-11-18T09:00:17;3.83;;;3.53;;
30472;SDS011;17263;48.160;11.452;2023-11-18T09:03:02;4.73;;;3.87;;
30472;SDS011;17263;48.160;11.452;2023-11-18T09:05:32;4.23;;;3.83;;
30472;SDS011;17263;48.160;11.452;2023-11-18T09:07:58;3.90;;;3.50;;
30472;SDS011;17263;48.160;11.452;2023-11-18T09:10:27;4.10;;;3.57;;
30472;SDS011;17263;48.160;11.452;2023-11-18T09:12:54;4.33;;;3.60;;
30472;SDS011;17263;48.160;11.452;2023-11-18T09:15:20;4.93;;;4.00;;
30472;SDS011;17263;48.160;11.452;2023-11-18T09:17:49;3.73;;;3.37;;
30472;SDS011;17263;48.160;11.452;2023-11-18T09:20:15;3.53;;;3.23;;
30472;SDS011;17263;48.160;11.452;2023-11-18T09:22:48;3.50;;;3.20;;
30472;SDS011;17263;48.160;11.452;2023-11-18T09:25:14;5.40;;;3.50;;
30472;SDS011;17263;48.160;11.452;2023-11-18T09:27:41;4.90;;;3.20;;
30472;SDS011;17263;48.160;11.452;2023-11-18T09:30:08;3.50;;;3.20;;
30472;SDS011;17263;48.160;11.452;2023-11-18T09:32:42;3.17;;;2.93;;
30472;SDS011;17263;48.160;11.452;2023-11-18T09:35:08;4.57;;;3.40;;
30472;SDS011;17263;48.160;11.452;2023-11-18T09:37:35;3.27;;;2.97;;
30472;SDS011;17263;48.160;11.452;2023-11-18T09:40:04;3.63;;;3.20;;
30472;SDS011;17263;48.160;11.452;2023-11-18T09:42:37;3.23;;;2.93;;
30472;SDS011;17263;48.160;11.452;2023-11-18T09:45:04;3.43;;;3.13;;
30472;SDS011;17263;48.160;11.452;2023-11-18T09:47:42;3.30;;;3.00;;
30472;SDS011;17263;48.160;11.452;2023-11-18T09:50:10;2.97;;;2.77;;
30472;SDS011;17263;48.160;11.452;2023-11-18T09:52:42;3.07;;;2.80;;
30472;SDS011;17263;48.160;11.452;2023-11-18T09:55:21;3.83;;;2.80;;
30472;SDS011;17263;48.160;11.452;2023-11-18T09:58:03;3.20;;;2.90;;
30472;SDS011;17263;48.160;11.452;2023-11-18T10:00:34;3.93;;;2.90;;
30472;SDS011;17263;48.160;11.452;2023-11-18T10:03:07;2.83;;;2.57;;
30472;SDS011;17263;48.160;11.452;2023-11-18T10:05:35;5.93;;;2.37;;
30472;SDS011;17263;48.160;11.452;2023-11-18T10:08:02;2.70;;;2.50;;
30472;SDS011;17263;48.160;11.452;2023-11-18T10:10:31;2.67;;;2.47;;
30472;SDS011;17263;48.160;11.452;2023-11-18T10:13:03;4.13;;;2.40;;
30472;SDS011;17263;48.160;11.452;2023-11-18T10:15:34;4.57;;;2.57;;
30472;SDS011;17263;48.160;11.452;2023-11-18T10:18:00;2.53;;;2.33;;
30472;SDS011;17263;48.160;11.452;2023-11-18T10:23:11;2.90;;;2.60;;
30472;SDS011;17263;48.160;11.452;2023-11-18T10:25:50;4.33;;;2.30;;
30472;SDS011;17263;48.160;11.452;2023-11-18T10:30:56;2.73;;;2.40;;
30472;SDS011;17263;48.160;11.452;2023-11-18T10:33:32;3.23;;;2.00;;
30472;SDS011;17263;48.160;11.452;2023-11-18T10:36:01;2.10;;;1.90;;
30472;SDS011;17263;48.160;11.452;2023-11-18T10:38:38;2.13;;;1.90;;
30472;SDS011;17263;48.160;11.452;2023-11-18T10:41:15;2.93;;;2.10;;
30472;SDS011;17263;48.160;11.452;2023-11-18T10:43:42;1.90;;;1.80;;
30472;SDS011;17263;48.160;11.452;2023-11-18T10:46:10;2.23;;;2.00;;
30472;SDS011;17263;48.160;11.452;2023-11-18T10:48:38;3.03;;;1.83;;
30472;SDS011;17263;48.160;11.452;2023-11-18T10:51:07;2.43;;;2.13;;
30472;SDS011;17263;48.160;11.452;2023-11-18T10:53:34;3.10;;;2.60;;
30472;SDS011;17263;48.160;11.452;2023-11-18T10:56:05;2.50;;;2.20;;
30472;SDS011;17263;48.160;11.452;2023-11-18T10:58:41;2.43;;;2.17;;
30472;SDS011;17263;48.160;11.452;2023-11-18T11:01:08;4.17;;;2.30;;
30472;SDS011;17263;48.160;11.452;2023-11-18T11:03:53;2.10;;;1.90;;
30472;SDS011;17263;48.160;11.452;2023-11-18T11:06:23;2.20;;;1.87;;
30472;SDS011;17263;48.160;11.452;2023-11-18T11:08:50;2.23;;;2.03;;
30472;SDS011;17263;48.160;11.452;2023-11-18T11:11:19;2.30;;;2.10;;
30472;SDS011;17263;48.160;11.452;2023-11-18T11:13:53;2.40;;;1.70;;
30472;SDS011;17263;48.160;11.452;2023-11-18T11:16:23;1.87;;;1.63;;
30472;SDS011;17263;48.160;11.452;2023-11-18T11:19:35;1.80;;;1.50;;
30472;SDS011;17263;48.160;11.452;2023-11-18T11:22:15;1.63;;;1.53;;
30472;SDS011;17263;48.160;11.452;2023-11-18T11:27:36;2.03;;;1.57;;
30472;SDS011;17263;48.160;11.452;2023-11-18T11:32:53;3.97;;;1.63;;
30472;SDS011;17263;48.160;11.452;2023-11-18T11:35:31;1.47;;;1.30;;
30472;SDS011;17263;48.160;11.452;2023-11-18T11:38:02;1.90;;;1.20;;
30472;SDS011;17263;48.160;11.452;2023-11-18T11:40:38;1.53;;;1.30;;
30472;SDS011;17263;48.160;11.452;2023-11-18T11:43:07;2.63;;;1.37;;
30472;SDS011;17263;48.160;11.452;2023-11-18T11:45:36;1.43;;;1.30;;
30472;SDS011;17263;48.160;11.452;2023-11-18T11:48:04;1.47;;;1.20;;
30472;SDS011;17263;48.160;11.452;2023-11-18T11:50:51;2.43;;;1.50;;
30472;SDS011;17263;48.160;11.452;2023-11-18T11:54:01;1.63;;;1.10;;
30472;SDS011;17263;48.160;11.452;2023-11-18T11:56:43;3.03;;;1.23;;
30472;SDS011;17263;48.160;11.452;2023-11-18T12:02:22;1.73;;;1.20;;
30472;SDS011;17263;48.160;11.452;2023-11-18T12:04:55;2.07;;;1.17;;
30472;SDS011;17263;48.160;11.452;2023-11-18T12:07:27;1.23;;;1.13;;
30472;SDS011;17263;48.160;11.452;2023-11-18T12:09:59;1.40;;;1.30;;
30472;SDS011;17263;48.160;11.452;2023-11-18T12:12:27;5.43;;;3.43;;
30472;SDS011;17263;48.160;11.452;2023-11-18T12:14:54;3.83;;;2.90;;
30472;SDS011;17263;48.160;11.452;2023-11-18T12:20:37;2.03;;;1.30;;
30472;SDS011;17263;48.160;11.452;2023-11-18T12:23:13;1.60;;;1.37;;
30472;SDS011;17263;48.160;11.452;2023-11-18T12:25:40;1.30;;;1.20;;
30472;SDS011;17263;48.160;11.452;2023-11-18T12:28:07;1.53;;;1.33;;
30472;SDS011;17263;48.160;11.452;2023-11-18T12:33:03;2.37;;;1.50;;
30472;SDS011;17263;48.160;11.452;2023-11-18T12:41:03;4.53;;;1.43;;
30472;SDS011;17263;48.160;11.452;2023-11-18T12:49:21;1.87;;;1.63;;
30472;SDS011;17263;48.160;11.452;2023-11-18T12:51:51;3.47;;;1.47;;
30472;SDS011;17263;48.160;11.452;2023-11-18T12:54:20;1.60;;;1.40;;
30472;SDS011;17263;48.160;11.452;2023-11-18T12:56:47;2.53;;;1.57;;
30472;SDS011;17263;48.160;11.452;2023-11-18T12:59:15;2.57;;;1.40;;
30472;SDS011;17263;48.160;11.452;2023-11-18T13:01:52;1.67;;;1.57;;
30472;SDS011;17263;48.160;11.452;2023-11-18T13:04:22;2.23;;;1.70;;
30472;SDS011;17263;48.160;11.452;2023-11-18T13:06:49;1.80;;;1.40;;
30472;SDS011;17263;48.160;11.452;2023-11-18T13:09:23;1.63;;;1.40;;
30472;SDS011;17263;48.160;11.452;2023-11-18T13:11:56;1.90;;;1.53;;
30472;SDS011;17263;48.160;11.452;2023-11-18T13:14:33;5.60;;;1.70;;
30472;SDS011;17263;48.160;11.452;2023-11-18T13:17:02;1.67;;;1.40;;
30472;SDS011;17263;48.160;11.452;2023-11-18T13:19:31;1.60;;;1.40;;
30472;SDS011;17263;48.160;11.452;2023-11-18T13:22:00;2.13;;;1.60;;
30472;SDS011;17263;48.160;11.452;2023-11-18T13:24:32;2.70;;;1.47;;
30472;SDS011;17263;48.160;11.452;2023-11-18T13:27:00;3.73;;;1.50;;
30472;SDS011;17263;48.160;11.452;2023-11-18T13:29:30;1.63;;;1.50;;
30472;SDS011;17263;48.160;11.452;2023-11-18T13:31:57;2.33;;;1.40;;
30472;SDS011;17263;48.160;11.452;2023-11-18T13:34:25;1.97;;;1.50;;
30472;SDS011;17263;48.160;11.452;2023-11-18T13:36:53;2.07;;;1.30;;
30472;SDS011;17263;48.160;11.452;2023-11-18T13:39:20;1.87;;;1.30;;
30472;SDS011;17263;48.160;11.452;2023-11-18T13:41:49;1.80;;;1.40;;
30472;SDS011;17263;48.160;11.452;2023-11-18T13:44:34;2.30;;;1.47;;
30472;SDS011;17263;48.160;11.452;2023-11-18T13:47:06;1.73;;;1.43;;
30472;SDS011;17263;48.160;11.452;2023-11-18T13:49:34;1.97;;;1.70;;
30472;SDS011;17263;48.160;11.452;2023-11-18T13:52:00;1.77;;;1.37;;
30472;SDS011;17263;48.160;11.452;2023-11-18T13:54:31;3.43;;;1.80;;
30472;SDS011;17263;48.160;11.452;2023-11-18T13:56:58;1.60;;;1.50;;
30472;SDS011;17263;48.160;11.452;2023-11-18T13:59:25;2.07;;;1.50;;
30472;SDS011;17263;48.160;11.452;2023-11-18T14:01:52;2.53;;;1.70;;
30472;SDS011;17263;48.160;11.452;2023-11-18T14:04:29;2.60;;;1.67;;
30472;SDS011;17263;48.160;11.452;2023-11-18T14:07:03;2.43;;;1.80;;
30472;SDS011;17263;48.160;11.452;2023-11-18T14:09:31;4.03;;;1.70;;
30472;SDS011;17263;48.160;11.452;2023-11-18T14:12:06;3.63;;;1.83;;
30472;SDS011;17263;48.160;11.452;2023-11-18T14:14:33;5.37;;;1.57;;
30472;SDS011;17263;48.160;11.452;2023-11-18T14:17:00;2.07;;;1.60;;
30472;SDS011;17263;48.160;11.452;2023-11-18T14:19:26;4.13;;;1.40;;
30472;SDS011;17263;48.160;11.452;2023-11-18T14:21:53;2.50;;;1.20;;
30472;SDS011;17263;48.160;11.452;2023-11-18T14:24:20;2.70;;;1.70;;
30472;SDS011;17263;48.160;11.452;2023-11-18T14:26:48;3.90;;;1.50;;
30472;SDS011;17263;48.160;11.452;2023-11-18T14:29:15;1.60;;;1.37;;
30472;SDS011;17263;48.160;11.452;2023-11-18T14:31:42;2.23;;;1.50;;
30472;SDS011;17263;48.160;11.452;2023-11-18T14:34:08;2.53;;;1.47;;
30472;SDS011;17263;48.160;11.452;2023-11-18T14:36:38;1.40;;;1.23;;
30472;SDS011;17263;48.160;11.452;2023-11-18T14:39:05;2.10;;;1.50;;
30472;SDS011;17263;48.160;11.452;2023-11-18T14:41:35;2.17;;;1.40;;
30472;SDS011;17263;48.160;11.452;2023-11-18T14:44:02;1.53;;;1.43;;
30472;SDS011;17263;48.160;11.452;2023-11-18T14:46:30;1.90;;;1.30;;
30472;SDS011;17263;48.160;11.452;2023-11-18T14:48:59;3.03;;;1.60;;
30472;SDS011;17263;48.160;11.452;2023-11-18T14:51:25;1.83;;;1.50;;
30472;SDS011;17263;48.160;11.452;2023-11-18T14:53:51;2.00;;;1.57;;
30472;SDS011;17263;48.160;11.452;2023-11-18T14:56:17;1.77;;;1.50;;
30472;SDS011;17263;48.160;11.452;2023-11-18T14:58:43;2.60;;;1.60;;
30472;SDS011;17263;48.160;11.452;2023-11-18T15:01:14;2.47;;;1.73;;
30472;SDS011;17263;48.160;11.452;2023-11-18T15:03:41;1.80;;;1.70;;
30472;SDS011;17263;48.160;11.452;2023-11-18T15:06:07;3.60;;;1.60;;
30472;SDS011;17263;48.160;11.452;2023-11-18T15:08:35;2.07;;;1.50;;
30472;SDS011;17263;48.160;11.452;2023-11-18T15:11:01;3.33;;;1.50;;
30472;SDS011;17263;48.160;11.452;2023-11-18T15:13:27;2.13;;;1.53;;
30472;SDS011;17263;48.160;11.452;2023-11-18T15:15:54;2.63;;;1.50;;
30472;SDS011;17263;48.160;11.452;2023-11-18T15:18:21;2.27;;;1.57;;
30472;SDS011;17263;48.160;11.452;2023-11-18T15:20:48;2.37;;;1.70;;